Time;durP1;ratioP1;P1;durP2;ratioP2;P2;SDS_P1;SDS_P2;PMS_P1;PMS_P2;Temp;Humidity;BMP_temperature;BMP_pressure;BME280_temperature;BME280_humidity;BME280_pressure;Samples;Min_cycle;Max_cycle;Signal;HPM_P1;HPM_P2
2022/06/14 00:03:03;;;;;;;4.00;2.50;;;10.00;99.90;;;;;;5033960;28;20139;-69
2022/06/14 00:05:31;;;;;;;3.58;2.83;;;10.20;99.90;;;;;;5033816;28;20017;-73
2022/06/14 00:07:58;;;;;;;4.75;3.03;;;10.10;99.90;;;;;;5035408;28;20039;-71
2022/06/14 00:10:26;;;;;;;4.85;2.40;;;10.20;99.90;;;;;;5044741;28;20021;-70
2022/06/14 00:12:53;;;;;;;7.10;2.28;;;10.30;99.90;;;;;;5052739;28;20021;-70
2022/06/14 00:15:21;;;;;;;4.57;2.67;;;10.30;99.90;;;;;;5033716;28;20136;-69
2022/06/14 00:17:48;;;;;;;3.92;2.13;;;10.40;99.90;;;;;;5039114;28;20102;-70
2022/06/14 00:20:16;;;;;;;3.72;2.10;;;10.40;99.90;;;;;;5033307;28;20029;-74
2022/06/14 00:22:44;;;;;;;2.45;1.98;;;10.50;99.90;;;;;;5031802;28;20017;-70
2022/06/14 00:25:36;;;;;;;2.70;1.95;;;10.70;99.90;;;;;;5033990;28;20017;-70
2022/06/14 00:28:05;;;;;;;5.15;2.40;;;10.80;99.90;;;;;;5013437;28;20533;-70
2022/06/14 00:30:33;;;;;;;5.82;2.40;;;10.80;99.90;;;;;;5024902;28;20029;-69
2022/06/14 00:33:00;;;;;;;4.25;2.40;;;10.90;99.90;;;;;;5033133;28;20454;-69
2022/06/14 00:35:29;;;;;;;2.80;2.08;;;11.10;99.90;;;;;;5032645;28;20033;-71
2022/06/14 00:37:56;;;;;;;3.70;2.33;;;11.10;99.90;;;;;;5012710;28;20430;-70
2022/06/14 00:40:27;;;;;;;9.18;2.70;;;11.20;99.90;;;;;;5021836;28;20033;-70
2022/06/14 00:42:54;;;;;;;7.03;3.05;;;11.30;99.90;;;;;;5033430;28;20028;-72
2022/06/14 00:45:22;;;;;;;5.88;2.80;;;11.30;99.90;;;;;;5032981;28;20021;-70
2022/06/14 00:48:07;;;;;;;4.15;2.65;;;11.40;99.90;;;;;;5044190;28;20022;-73
2022/06/14 00:50:54;;;;;;;3.53;2.47;;;11.60;99.90;;;;;;5024385;28;20021;-73
2022/06/14 00:53:51;;;;;;;3.92;2.80;;;11.70;99.90;;;;;;5032618;28;20370;-72
2022/06/14 00:56:27;;;;;;;3.35;2.80;;;11.80;99.90;;;;;;5032934;28;20045;-69
2022/06/14 00:59:17;;;;;;;5.75;2.67;;;11.90;99.50;;;;;;5033175;28;20025;-69
2022/06/14 01:01:45;;;;;;;7.32;3.40;;;11.90;99.60;;;;;;5032055;28;20069;-66
2022/06/14 01:04:18;;;;;;;8.07;4.30;;;12.00;99.70;;;;;;5032282;28;20402;-68
2022/06/14 01:06:51;;;;;;;;;;;12.10;99.80;;;;;;5042897;28;20056;-71
2022/06/14 01:09:21;;;;;;;3.28;2.88;;;12.30;99.70;;;;;;5052537;28;19912;-71
2022/06/14 01:12:03;;;;;;;5.68;2.92;;;12.40;99.20;;;;;;5052664;28;20377;-70
2022/06/14 01:14:46;;;;;;;5.53;3.10;;;12.40;98.90;;;;;;5051667;28;20024;-69
2022/06/14 01:17:14;;;;;;;;;;;12.60;99.00;;;;;;5046744;28;20025;-72
2022/06/14 01:19:42;;;;;;;5.35;3.60;;;12.70;98.80;;;;;;5037302;28;19909;-74
2022/06/14 01:22:09;;;;;;;9.25;3.53;;;12.80;98.50;;;;;;5032439;28;20108;-70
2022/06/14 01:24:39;;;;;;;6.38;3.80;;;12.90;98.20;;;;;;5032465;28;20045;-70
2022/06/14 01:27:09;;;;;;;5.13;3.22;;;13.00;98.20;;;;;;5045101;28;20021;-69
2022/06/14 01:29:39;;;;;;;6.18;3.17;;;13.10;97.80;;;;;;5051945;28;20017;-69
2022/06/14 01:32:11;;;;;;;7.38;2.97;;;13.30;97.40;;;;;;5052185;28;20021;-70
2022/06/14 01:34:44;;;;;;;6.78;3.55;;;13.40;97.20;;;;;;5052379;28;20098;-69
2022/06/14 01:37:13;;;;;;;5.97;3.45;;;13.50;97.00;;;;;;5038805;28;20108;-69
2022/06/14 01:39:40;;;;;;;4.55;3.65;;;13.70;96.80;;;;;;5031482;28;20037;-69
2022/06/14 01:42:51;;;;;;;6.80;4.03;;;13.80;96.50;;;;;;5031901;28;20040;-72
2022/06/14 01:45:21;;;;;;;6.35;4.10;;;13.90;96.30;;;;;;5031570;28;20026;-74
2022/06/14 01:48:03;;;;;;;7.90;3.97;;;14.00;96.00;;;;;;5050344;28;20025;-71
2022/06/14 01:53:38;;;;;;;8.55;5.75;;;14.20;96.20;;;;;;5032568;28;20490;-73
2022/06/14 01:56:18;;;;;;;9.23;5.20;;;14.40;96.10;;;;;;5037112;28;20453;-69
2022/06/14 01:58:45;;;;;;;7.95;4.95;;;14.60;96.10;;;;;;5051386;28;20057;-76
2022/06/14 02:01:36;;;;;;;8.93;5.22;;;14.80;95.50;;;;;;5050004;28;20148;-73
2022/06/14 02:04:37;;;;;;;9.57;5.95;;;15.00;95.20;;;;;;5032101;28;20052;-72
2022/06/14 02:07:40;;;;;;;7.82;5.88;;;15.10;94.70;;;;;;5044282;28;20055;-73
2022/06/14 02:10:13;;;;;;;7.32;5.47;;;15.20;94.40;;;;;;5040115;28;20041;-73
2022/06/14 02:13:03;;;;;;;10.38;5.97;;;15.30;94.80;;;;;;5031593;28;20032;-72
2022/06/14 02:15:54;;;;;;;9.85;6.50;;;15.50;94.70;;;;;;5047526;28;20075;-69
2022/06/14 02:18:40;;;;;;;15.20;6.72;;;15.70;94.50;;;;;;5032899;28;20033;-70
2022/06/14 02:21:18;;;;;;;8.70;5.20;;;15.80;93.80;;;;;;5032049;28;20179;-74
2022/06/14 02:23:52;;;;;;;8.07;5.22;;;15.80;93.80;;;;;;5031977;28;20032;-72
2022/06/14 02:26:26;;;;;;;8.50;4.15;;;15.90;93.60;;;;;;5038228;28;20104;-74
2022/06/14 02:29:03;;;;;;;5.85;3.75;;;16.00;93.10;;;;;;5051641;28;20093;-75
2022/06/14 02:31:49;;;;;;;6.53;3.58;;;15.90;93.00;;;;;;5045264;28;20025;-71
2022/06/14 02:34:44;;;;;;;4.85;3.22;;;16.00;93.20;;;;;;5047091;28;20070;-74
2022/06/14 02:37:24;;;;;;;6.57;3.70;;;16.30;92.60;;;;;;5032746;28;20022;-73
2022/06/14 02:39:56;;;;;;;7.82;3.22;;;16.50;92.90;;;;;;5031479;28;20079;-72
2022/06/14 02:43:01;;;;;;;7.82;3.85;;;16.60;92.90;;;;;;5046496;28;20036;-75
2022/06/14 02:45:42;;;;;;;7.05;3.30;;;16.80;92.50;;;;;;5035357;28;20037;-69
2022/06/14 02:48:19;;;;;;;8.40;4.57;;;17.10;92.40;;;;;;5011668;28;20106;-70
2022/06/14 02:51:07;;;;;;;4.82;2.92;;;17.70;92.10;;;;;;5050211;28;20029;-68
2022/06/14 02:53:44;;;;;;;4.72;2.63;;;18.30;91.10;;;;;;5050383;28;20132;-69
2022/06/14 02:56:28;;;;;;;5.07;2.78;;;18.70;90.10;;;;;;5051521;28;20032;-70
2022/06/14 02:58:55;;;;;;;3.78;2.33;;;19.10;88.90;;;;;;5050758;28;20067;-69
2022/06/14 03:01:31;;;;;;;5.75;2.67;;;19.20;87.70;;;;;;5050900;28;20056;-69
2022/06/14 03:04:05;;;;;;;3.65;2.13;;;19.40;87.90;;;;;;5051637;28;20021;-67
2022/06/14 03:07:13;;;;;;;4.35;2.65;;;19.50;85.90;;;;;;5050908;28;20052;-68
2022/06/14 03:09:43;;;;;;;7.78;2.63;;;19.80;86.40;;;;;;5050846;28;20029;-68
2022/06/14 03:12:26;;;;;;;3.85;2.15;;;20.00;85.30;;;;;;5066886;28;20025;-68
2022/06/14 03:15:17;;;;;;;3.67;1.90;;;20.00;85.30;;;;;;5029946;28;20382;-66
2022/06/14 03:18:04;;;;;;;3.10;2.42;;;20.30;84.30;;;;;;5049070;28;20048;-69
2022/06/14 03:20:44;;;;;;;4.72;2.20;;;20.70;83.00;;;;;;5054952;28;20132;-72
2022/06/14 03:23:30;;;;;;;7.80;3.05;;;20.80;82.40;;;;;;5055390;28;20078;-68
2022/06/14 03:26:14;;;;;;;4.05;1.65;;;21.00;82.40;;;;;;5055514;28;20021;-71
2022/06/14 03:28:52;;;;;;;5.68;2.50;;;21.10;81.70;;;;;;5055071;28;20113;-67
2022/06/14 03:31:29;;;;;;;4.80;2.25;;;21.20;81.60;;;;;;5052969;28;20104;-67
2022/06/14 03:33:59;;;;;;;3.42;1.58;;;21.30;80.80;;;;;;5054720;28;20029;-69
2022/06/14 03:36:27;;;;;;;4.65;1.92;;;21.60;80.50;;;;;;5053144;28;20025;-77
2022/06/14 03:39:10;;;;;;;5.03;1.90;;;22.30;79.00;;;;;;5035231;28;20092;-72
2022/06/14 03:41:40;;;;;;;3.13;1.77;;;23.00;76.80;;;;;;5034258;28;20037;-73
2022/06/14 03:44:08;;;;;;;5.07;2.15;;;23.00;76.00;;;;;;5034331;28;20028;-71
2022/06/14 03:46:43;;;;;;;3.53;1.38;;;23.30;75.40;;;;;;5042230;28;20052;-72
2022/06/14 03:49:18;;;;;;;3.03;1.60;;;23.70;74.60;;;;;;5039269;28;20033;-68
2022/06/14 03:51:51;;;;;;;5.00;2.25;;;24.10;73.10;;;;;;5046745;28;20049;-72
2022/06/14 03:54:42;;;;;;;3.33;1.65;;;24.40;72.10;;;;;;5054184;28;20520;-68
2022/06/14 03:57:22;;;;;;;2.60;2.00;;;24.40;71.70;;;;;;5053580;28;20079;-75
2022/06/14 04:00:04;;;;;;;3.70;1.98;;;24.40;71.40;;;;;;5036603;28;20091;-76
2022/06/14 04:02:53;;;;;;;;;;;24.40;71.00;;;;;;5032012;28;20500;-70
2022/06/14 04:05:41;;;;;;;3.80;1.75;;;23.90;71.40;;;;;;5037434;28;19909;-78
2022/06/14 04:08:14;;;;;;;3.78;1.70;;;22.50;73.70;;;;;;5035189;28;20025;-70
2022/06/14 04:10:47;;;;;;;3.63;1.70;;;21.60;75.80;;;;;;5039293;28;20016;-73
2022/06/14 04:13:45;;;;;;;5.78;1.88;;;20.90;77.50;;;;;;5054432;28;20491;-74
2022/06/14 04:16:46;;;;;;;3.22;1.55;;;20.30;78.20;;;;;;5042357;28;20134;-79
2022/06/14 04:19:46;;;;;;;3.22;1.10;;;19.60;80.00;;;;;;5041287;28;20045;-72
2022/06/14 04:22:31;;;;;;;2.72;1.20;;;19.00;82.40;;;;;;5053677;28;20033;-73
2022/06/14 04:25:03;;;;;;;4.72;1.27;;;18.70;83.20;;;;;;5053796;28;20025;-70
2022/06/14 04:27:57;;;;;;;3.47;1.55;;;18.50;84.00;;;;;;5034104;28;20032;-75
2022/06/14 04:30:37;;;;;;;3.55;1.25;;;18.10;85.00;;;;;;5043177;28;20025;-71
2022/06/14 04:33:16;;;;;;;3.47;1.20;;;18.00;86.10;;;;;;5029725;28;20347;-70
2022/06/14 04:36:25;;;;;;;3.85;1.02;;;17.80;86.50;;;;;;5038120;28;20031;-68
2022/06/14 04:39:04;;;;;;;3.22;1.00;;;17.70;86.20;;;;;;5047575;28;20067;-68
2022/06/14 04:41:43;;;;;;;2.83;1.38;;;17.60;86.00;;;;;;5052906;28;20040;-66
2022/06/14 04:44:39;;;;;;;2.03;0.80;;;17.60;85.20;;;;;;5053281;28;20452;-71
2022/06/14 04:47:16;;;;;;;2.08;0.60;;;17.50;83.80;;;;;;5048152;28;20068;-67
2022/06/14 04:50:07;;;;;;;1.63;0.73;;;17.50;83.60;;;;;;5041272;28;20025;-68
2022/06/14 04:52:49;;;;;;;2.28;0.95;;;17.50;83.40;;;;;;5025609;28;20783;-68
2022/06/14 04:55:22;;;;;;;4.28;0.80;;;17.50;83.50;;;;;;5044810;28;20045;-71
2022/06/14 04:58:08;;;;;;;1.23;0.70;;;17.60;83.40;;;;;;5049902;28;20032;-71
2022/06/14 05:00:51;;;;;;;2.63;0.70;;;17.60;83.10;;;;;;5051808;28;20025;-71
2022/06/14 05:03:28;;;;;;;14.93;1.77;;;17.50;82.50;;;;;;5020454;28;20025;-75
2022/06/14 05:06:07;;;;;;;1.58;0.55;;;17.40;83.60;;;;;;5050520;28;20021;-68
2022/06/14 05:08:48;;;;;;;3.05;0.70;;;17.50;83.50;;;;;;5045628;28;20029;-70
2022/06/14 05:11:39;;;;;;;2.05;0.57;;;17.40;83.70;;;;;;5032412;28;20470;-69
2022/06/14 05:14:21;;;;;;;2.53;1.00;;;17.50;83.90;;;;;;5030505;28;20029;-69
2022/06/14 05:17:08;;;;;;;;;;;17.50;84.50;;;;;;5041882;28;20093;-75
2022/06/14 05:19:48;;;;;;;1.63;0.70;;;17.50;84.10;;;;;;5061370;28;20020;-69
2022/06/14 05:22:25;;;;;;;1.02;0.60;;;17.40;84.40;;;;;;5031528;28;20030;-71
2022/06/14 05:24:53;;;;;;;2.25;1.00;;;17.50;84.80;;;;;;5041753;28;20030;-73
2022/06/14 05:27:29;;;;;;;3.55;0.75;;;17.50;85.30;;;;;;5038718;28;20026;-69
2022/06/14 05:30:06;;;;;;;3.92;1.63;;;17.50;84.60;;;;;;5032627;28;20021;-72
2022/06/14 05:32:52;;;;;;;3.72;0.80;;;17.60;85.20;;;;;;5036664;28;20040;-74
2022/06/14 05:35:40;;;;;;;2.38;0.70;;;17.80;85.70;;;;;;5038050;28;20029;-72
2022/06/14 05:38:35;;;;;;;3.50;0.90;;;18.10;84.40;;;;;;5059716;28;20064;-71
2022/06/14 05:41:11;;;;;;;1.58;0.70;;;18.50;83.80;;;;;;5052641;28;20645;-73
2022/06/14 05:44:04;;;;;;;2.45;0.82;;;18.40;83.60;;;;;;5047039;28;20689;-78
2022/06/14 05:46:53;;;;;;;1.40;0.77;;;18.30;83.20;;;;;;5038654;28;20044;-72
2022/06/14 05:49:34;;;;;;;3.30;0.52;;;18.10;83.70;;;;;;5039143;28;20477;-68
2022/06/14 05:52:43;;;;;;;3.63;0.80;;;18.10;84.50;;;;;;5042860;28;20048;-72
2022/06/14 05:55:16;;;;;;;1.75;0.60;;;18.00;84.60;;;;;;5039842;28;20041;-74
2022/06/14 05:58:00;;;;;;;1.85;0.65;;;18.20;84.80;;;;;;5030199;28;20041;-74
2022/06/14 06:00:55;;;;;;;3.38;0.80;;;18.30;84.30;;;;;;5041336;28;20108;-72
2022/06/14 06:03:52;;;;;;;4.53;1.25;;;18.50;83.90;;;;;;5060226;28;20124;-70
2022/06/14 06:06:32;;;;;;;2.28;0.70;;;18.70;84.00;;;;;;5034444;28;20477;-78
2022/06/14 06:09:24;;;;;;;3.30;0.90;;;18.80;83.10;;;;;;5031193;28;20029;-69
2022/06/14 06:12:02;;;;;;;1.08;0.70;;;18.70;83.50;;;;;;5030525;28;20036;-73
2022/06/14 06:14:42;;;;;;;3.92;2.45;;;18.60;85.20;;;;;;5048118;28;20021;-76
2022/06/14 06:17:48;;;;;;;2.35;1.10;;;18.30;86.50;;;;;;5050536;28;20131;-72
2022/06/14 06:20:36;;;;;;;7.53;1.50;;;18.00;88.70;;;;;;4989150;28;20117;-74
2022/06/14 06:23:23;;;;;;;4.20;1.40;;;17.80;89.90;;;;;;5037827;28;20676;-74
2022/06/14 06:25:55;;;;;;;4.78;1.23;;;17.40;90.60;;;;;;5037426;28;20025;-73
2022/06/14 06:28:31;;;;;;;6.18;2.00;;;17.10;91.20;;;;;;5047132;28;20036;-72
2022/06/14 06:31:19;;;;;;;6.65;1.27;;;16.90;91.80;;;;;;5030330;28;20493;-70
2022/06/14 06:33:50;;;;;;;7.60;1.90;;;16.60;92.60;;;;;;5028466;28;20496;-76
2022/06/14 06:36:31;;;;;;;4.38;1.80;;;16.30;93.20;;;;;;5028100;28;20389;-74
2022/06/14 06:39:14;;;;;;;5.78;1.70;;;16.10;93.70;;;;;;5028886;28;20029;-79
2022/06/14 06:41:52;;;;;;;7.88;3.10;;;15.90;94.20;;;;;;5030458;28;20025;-77
2022/06/14 06:44:31;;;;;;;6.93;1.67;;;15.80;94.60;;;;;;5029877;28;20035;-71
2022/06/14 06:47:15;;;;;;;8.52;2.78;;;15.60;95.10;;;;;;5030828;28;20113;-72
2022/06/14 06:50:01;;;;;;;12.30;3.08;;;15.50;95.50;;;;;;5031560;28;20100;-70
2022/06/14 06:52:50;;;;;;;6.55;2.40;;;15.40;95.80;;;;;;5036558;28;20473;-73
2022/06/14 06:55:33;;;;;;;4.25;2.08;;;15.20;96.20;;;;;;5030967;28;20292;-70
2022/06/14 06:58:05;;;;;;;4.30;2.33;;;15.10;96.50;;;;;;5028646;28;20040;-72
2022/06/14 07:00:33;;;;;;;6.53;2.13;;;15.10;96.80;;;;;;5028169;28;20037;-71
2022/06/14 07:03:29;;;;;;;8.20;2.58;;;15.00;97.20;;;;;;5029274;28;20026;-73
2022/06/14 07:06:02;;;;;;;8.10;2.20;;;14.90;97.50;;;;;;5023667;28;20426;-71
2022/06/14 07:08:37;;;;;;;;;;;14.80;97.70;;;;;;5025829;28;20061;-71
2022/06/14 07:11:06;;;;;;;10.32;2.38;;;14.70;97.90;;;;;;5029077;28;19906;-74
2022/06/14 07:13:46;;;;;;;6.63;2.85;;;14.60;98.30;;;;;;5029912;28;20049;-73
2022/06/14 07:16:52;;;;;;;13.73;2.78;;;14.50;98.60;;;;;;5030494;28;20030;-74
2022/06/14 07:19:36;;;;;;;10.38;3.10;;;14.40;98.90;;;;;;5023119;28;20478;-75
2022/06/14 07:22:20;;;;;;;11.73;2.72;;;14.30;99.20;;;;;;5030234;28;20048;-64
2022/06/14 07:25:05;;;;;;;7.20;3.08;;;14.20;99.50;;;;;;5034441;28;20390;-69
2022/06/14 07:27:40;;;;;;;10.38;3.08;;;14.20;99.90;;;;;;5028710;28;20390;-73
2022/06/14 07:30:15;;;;;;;9.65;2.97;;;14.10;99.90;;;;;;5042976;28;20032;-68
2022/06/14 07:32:50;;;;;;;12.25;3.58;;;14.00;99.90;;;;;;5039785;28;20051;-66
2022/06/14 07:35:31;;;;;;;8.73;2.60;;;13.90;99.90;;;;;;5049384;28;20017;-68
2022/06/14 07:38:15;;;;;;;9.95;2.97;;;13.90;99.90;;;;;;5029064;28;20041;-71
2022/06/14 07:41:04;;;;;;;9.13;3.60;;;13.80;99.90;;;;;;5031849;28;20036;-74
2022/06/14 07:43:57;;;;;;;13.15;4.32;;;13.70;99.90;;;;;;5028762;28;20025;-72
2022/06/14 07:46:48;;;;;;;10.27;3.17;;;13.70;99.90;;;;;;5025830;28;20402;-77
2022/06/14 07:49:53;;;;;;;11.48;3.00;;;13.60;99.90;;;;;;5021950;28;20058;-73
2022/06/14 07:52:48;;;;;;;12.60;4.38;;;13.60;99.90;;;;;;5029254;28;20413;-69
2022/06/14 07:55:21;;;;;;;9.48;3.55;;;13.50;99.90;;;;;;5028508;28;20529;-70
2022/06/14 07:57:56;;;;;;;10.75;4.05;;;13.40;99.90;;;;;;5028698;28;20033;-68
2022/06/14 08:03:28;;;;;;;12.75;4.45;;;13.30;99.90;;;;;;5011223;28;20390;-67
2022/06/14 08:05:57;;;;;;;13.52;5.97;;;13.20;99.90;;;;;;5031541;28;20028;-67
2022/06/14 08:08:34;;;;;;;11.10;5.60;;;13.10;99.90;;;;;;5035748;28;20021;-69
2022/06/14 08:11:14;;;;;;;11.20;5.80;;;13.10;99.90;;;;;;5032770;28;20398;-71
2022/06/14 08:13:49;;;;;;;12.35;6.82;;;13.00;99.90;;;;;;5032276;28;20041;-69
2022/06/14 08:16:18;;;;;;;17.30;10.23;;;13.00;99.90;;;;;;5032440;28;20029;-69
2022/06/14 08:18:53;;;;;;;19.58;9.82;;;12.90;99.90;;;;;;5033811;28;20021;-72
2022/06/14 08:21:40;;;;;;;18.88;9.30;;;12.90;99.90;;;;;;5024772;28;20409;-69
2022/06/14 08:24:22;;;;;;;16.42;7.65;;;12.80;99.90;;;;;;5033123;28;20017;-73
2022/06/14 08:26:49;;;;;;;13.10;7.40;;;12.80;99.90;;;;;;5031348;28;20124;-69
2022/06/14 08:29:50;;;;;;;15.73;7.85;;;12.70;99.90;;;;;;5045176;28;20274;-66
2022/06/14 08:32:43;;;;;;;12.88;7.07;;;12.70;99.90;;;;;;5023857;28;20064;-68
2022/06/14 08:35:36;;;;;;;16.15;6.75;;;12.70;99.90;;;;;;5031464;28;20021;-67
2022/06/14 08:38:12;;;;;;;;;;;12.60;99.90;;;;;;5031206;28;20211;-69
2022/06/14 08:40:58;;;;;;;12.65;6.43;;;12.50;99.90;;;;;;5035521;28;19921;-69
2022/06/14 08:43:49;;;;;;;15.07;6.90;;;12.60;99.90;;;;;;5033377;28;20021;-73
2022/06/14 08:46:28;;;;;;;15.63;6.82;;;12.60;99.90;;;;;;5033076;28;20033;-69
2022/06/14 08:49:10;;;;;;;14.68;6.43;;;12.50;99.90;;;;;;5036402;28;20021;-69
2022/06/14 08:51:55;;;;;;;13.63;6.85;;;12.40;99.90;;;;;;5031799;28;20060;-68
2022/06/14 08:54:27;;;;;;;18.45;7.00;;;12.30;99.90;;;;;;5031634;28;20049;-67
2022/06/14 08:57:09;;;;;;;;;;;12.30;99.90;;;;;;5032767;28;20021;-68
2022/06/14 08:59:46;;;;;;;16.90;7.43;;;12.30;99.90;;;;;;5031754;28;19913;-73
2022/06/14 09:03:00;;;;;;;17.75;8.20;;;12.30;99.90;;;;;;5032623;28;20490;-73
2022/06/14 09:05:58;;;;;;;15.30;6.97;;;12.20;99.90;;;;;;5005460;28;20026;-70
2022/06/14 09:08:52;;;;;;;14.68;7.63;;;12.20;99.90;;;;;;5002124;28;20038;-70
2022/06/14 09:11:22;;;;;;;15.43;6.80;;;12.10;99.90;;;;;;5030200;28;20103;-71
2022/06/14 09:14:24;;;;;;;14.75;7.00;;;12.00;99.90;;;;;;5032301;28;20029;-67
2022/06/14 09:17:09;;;;;;;14.38;7.25;;;11.90;99.90;;;;;;5029332;28;20478;-68
2022/06/14 09:19:58;;;;;;;18.85;8.27;;;11.90;99.90;;;;;;5015762;28;20029;-71
2022/06/14 09:22:58;;;;;;;24.25;9.02;;;11.80;99.90;;;;;;5069887;28;20048;-66
2022/06/14 09:25:49;;;;;;;15.60;7.75;;;11.80;99.90;;;;;;5036554;28;20021;-66
2022/06/14 09:28:16;;;;;;;14.50;7.72;;;11.70;99.90;;;;;;5025590;28;20017;-72
2022/06/14 09:31:20;;;;;;;19.27;7.75;;;11.70;99.90;;;;;;5043516;28;20059;-68
2022/06/14 09:34:09;;;;;;;13.93;7.00;;;11.70;99.90;;;;;;5051324;28;20045;-70
2022/06/14 09:36:57;;;;;;;16.23;6.40;;;11.60;99.90;;;;;;5051953;28;20036;-67
2022/06/14 09:39:53;;;;;;;17.23;7.93;;;11.60;99.90;;;;;;5041973;28;20060;-72
2022/06/14 09:42:29;;;;;;;13.43;7.78;;;11.60;99.90;;;;;;5037846;28;20033;-75
2022/06/14 09:45:34;;;;;;;15.45;6.35;;;11.50;99.90;;;;;;5052214;28;20021;-69
2022/06/14 09:48:38;;;;;;;11.80;6.57;;;11.50;99.90;;;;;;5052372;28;20032;-69
2022/06/14 09:51:32;;;;;;;16.95;7.38;;;11.40;99.90;;;;;;5050880;28;20064;-68
2022/06/14 09:54:36;;;;;;;15.15;7.00;;;11.40;99.90;;;;;;5052529;28;20048;-69
2022/06/14 09:57:39;;;;;;;19.15;8.68;;;11.30;99.90;;;;;;5051365;28;20029;-69
2022/06/14 10:00:30;;;;;;;16.45;7.55;;;11.30;99.90;;;;;;5051934;28;20493;-70
2022/06/14 10:03:27;;;;;;;16.45;8.38;;;11.20;99.90;;;;;;5052237;28;20082;-69
2022/06/14 10:06:19;;;;;;;17.85;8.60;;;11.10;99.90;;;;;;5051923;28;20021;-70
2022/06/14 10:09:24;;;;;;;19.08;8.77;;;11.20;99.90;;;;;;5048407;28;20399;-68
2022/06/14 10:12:07;;;;;;;15.88;7.80;;;11.10;99.90;;;;;;5012114;28;20045;-71
2022/06/14 10:14:52;;;;;;;14.77;7.47;;;11.00;99.90;;;;;;5044123;28;20032;-70
2022/06/14 10:17:41;;;;;;;16.70;8.50;;;11.10;99.90;;;;;;5051260;28;20481;-67
2022/06/14 10:20:29;;;;;;;19.83;9.40;;;11.10;99.90;;;;;;5066127;28;20060;-70
2022/06/14 10:23:28;;;;;;;18.15;9.07;;;10.90;99.90;;;;;;5041628;28;20078;-68
2022/06/14 10:29:26;;;;;;;15.77;9.43;;;11.00;99.90;;;;;;5030285;28;20103;-69
2022/06/14 10:32:35;;;;;;;20.63;9.77;;;10.90;99.90;;;;;;5044658;28;20376;-71
2022/06/14 10:35:26;;;;;;;22.75;9.32;;;10.90;99.90;;;;;;5045895;28;20017;-71
2022/06/14 10:38:25;;;;;;;14.80;8.65;;;10.80;99.90;;;;;;5031471;28;20543;-67
2022/06/14 10:41:11;;;;;;;17.63;8.68;;;10.80;99.90;;;;;;5030548;28;20061;-67
2022/06/14 10:43:47;;;;;;;19.30;9.75;;;10.80;99.90;;;;;;5031079;28;20097;-71
2022/06/14 10:46:29;;;;;;;20.27;10.70;;;10.70;99.90;;;;;;5031712;28;20112;-66
2022/06/14 10:49:26;;;;;;;18.17;10.20;;;10.70;99.90;;;;;;5031704;28;20021;-68
2022/06/14 10:51:56;;;;;;;16.65;8.60;;;10.60;99.90;;;;;;5040051;28;20044;-74
2022/06/14 10:55:08;;;;;;;14.55;9.25;;;10.50;99.90;;;;;;5051281;28;20060;-67
2022/06/14 10:57:38;;;;;;;13.32;8.70;;;10.60;99.90;;;;;;5047003;28;20131;-69
2022/06/14 11:00:29;;;;;;;15.82;7.20;;;10.60;99.90;;;;;;5051115;28;20041;-68
2022/06/14 11:03:19;;;;;;;17.02;8.27;;;10.50;99.90;;;;;;5051764;28;20025;-67
2022/06/14 11:06:11;;;;;;;18.63;8.85;;;10.50;99.90;;;;;;5051586;28;20079;-71
2022/06/14 11:09:13;;;;;;;16.67;9.75;;;10.50;99.90;;;;;;5051796;28;20025;-71
2022/06/14 11:11:53;;;;;;;15.98;9.13;;;10.40;99.90;;;;;;5038443;28;20537;-71
2022/06/14 11:14:41;;;;;;;17.73;9.15;;;10.40;99.90;;;;;;5047279;28;20033;-68
2022/06/14 11:17:32;;;;;;;22.52;9.73;;;10.40;99.90;;;;;;5051402;28;20100;-70
2022/06/14 11:20:21;;;;;;;17.20;9.75;;;10.30;99.90;;;;;;5051366;28;20095;-73
2022/06/14 11:23:07;;;;;;;18.80;10.15;;;10.40;99.90;;;;;;5051670;28;20017;-67
2022/06/14 11:25:40;;;;;;;18.40;10.15;;;10.40;99.90;;;;;;5051378;28;20021;-68
2022/06/14 11:28:48;;;;;;;14.85;10.48;;;10.30;99.90;;;;;;5050930;28;20029;-69
2022/06/14 11:31:45;;;;;;;16.75;8.85;;;10.40;99.90;;;;;;4989530;28;20488;-68
2022/06/14 11:34:51;;;;;;;16.88;8.02;;;10.40;99.90;;;;;;4989858;28;20034;-66
2022/06/14 11:37:43;;;;;;;14.98;8.30;;;10.40;99.90;;;;;;5013957;28;20510;-70
2022/06/14 11:40:29;;;;;;;12.27;7.38;;;10.30;99.90;;;;;;5016043;28;20033;-67
2022/06/14 11:43:27;;;;;;;12.75;6.25;;;10.30;99.90;;;;;;5015568;28;20034;-71
2022/06/14 11:46:00;;;;;;;16.95;9.15;;;10.20;99.90;;;;;;5015613;28;20033;-68
2022/06/14 11:48:37;;;;;;;14.63;7.88;;;10.20;99.90;;;;;;5037168;28;20040;-70
2022/06/14 11:51:23;;;;;;;22.63;8.77;;;10.30;99.90;;;;;;5055407;28;20021;-68
2022/06/14 11:54:21;;;;;;;13.73;7.40;;;10.20;99.90;;;;;;5053543;28;20048;-71
2022/06/14 11:57:02;;;;;;;13.15;8.00;;;10.20;99.90;;;;;;5054197;28;20025;-68
2022/06/14 12:00:06;;;;;;;12.18;7.18;;;10.20;99.90;;;;;;5053758;28;20029;-68
2022/06/14 12:03:08;;;;;;;12.30;6.93;;;10.20;99.90;;;;;;5055457;28;20037;-68
2022/06/14 12:05:48;;;;;;;11.95;7.10;;;10.10;99.90;;;;;;5052727;28;20029;-73
2022/06/14 12:08:50;;;;;;;13.57;8.82;;;10.10;99.90;;;;;;5054306;28;20075;-70
2022/06/14 12:11:34;;;;;;;10.77;7.65;;;10.00;99.90;;;;;;5055054;28;20066;-68
2022/06/14 12:14:13;;;;;;;18.17;9.88;;;10.10;99.90;;;;;;5055073;28;20492;-69
2022/06/14 12:16:44;;;;;;;12.25;8.52;;;10.00;99.90;;;;;;5054785;28;20021;-68
2022/06/14 12:19:33;;;;;;;17.35;9.43;;;10.00;99.90;;;;;;5054406;28;20420;-68
2022/06/14 12:22:28;;;;;;;18.27;10.57;;;10.00;99.90;;;;;;5054635;28;20474;-69
2022/06/14 12:28:17;;;;;;;15.98;9.13;;;9.90;99.90;;;;;;5054424;28;20044;-68
2022/06/14 12:30:47;;;;;;;18.13;10.57;;;9.80;99.90;;;;;;5054831;28;20025;-67
2022/06/14 12:33:43;;;;;;;17.45;10.18;;;9.80;99.90;;;;;;5054240;28;20017;-68
2022/06/14 12:36:33;;;;;;;16.10;9.57;;;9.80;99.90;;;;;;5054407;28;20029;-71
2022/06/14 12:39:07;;;;;;;20.88;10.98;;;9.70;99.90;;;;;;5054084;28;20039;-71
2022/06/14 12:41:57;;;;;;;21.30;11.57;;;9.80;99.90;;;;;;5054246;28;20512;-66
2022/06/14 12:44:41;;;;;;;15.98;9.82;;;9.70;99.90;;;;;;5054270;28;20474;-71
2022/06/14 12:47:22;;;;;;;21.60;11.77;;;9.60;99.90;;;;;;5054123;28;20025;-66
2022/06/14 12:49:54;;;;;;;15.07;8.95;;;9.50;99.90;;;;;;5054031;28;20025;-66
2022/06/14 12:52:34;;;;;;;16.98;9.63;;;9.60;99.90;;;;;;5053141;28;20029;-66
2022/06/14 12:55:23;;;;;;;14.93;8.75;;;9.50;99.90;;;;;;5054049;28;20056;-66
2022/06/14 12:58:23;;;;;;;19.58;10.23;;;9.50;99.90;;;;;;5053853;28;20024;-66
2022/06/14 13:01:05;;;;;;;16.85;10.07;;;9.60;99.90;;;;;;5045523;28;20394;-70
2022/06/14 13:03:54;;;;;;;16.50;9.25;;;9.50;99.90;;;;;;5054110;28;20025;-66
2022/06/14 13:06:30;;;;;;;16.08;10.60;;;9.60;99.90;;;;;;5052698;28;20036;-72
2022/06/14 13:09:14;;;;;;;16.17;9.30;;;9.50;99.90;;;;;;5053744;28;20469;-73
2022/06/14 13:12:14;;;;;;;13.90;8.98;;;9.60;99.90;;;;;;5053771;28;20102;-67
2022/06/14 13:15:15;;;;;;;12.32;8.57;;;9.60;99.90;;;;;;5043449;28;20481;-67
2022/06/14 13:17:51;;;;;;;14.55;8.75;;;9.50;99.90;;;;;;5045150;28;20048;-67
2022/06/14 13:20:31;;;;;;;15.55;8.88;;;9.60;99.90;;;;;;5053570;28;20385;-69
2022/06/14 13:23:23;;;;;;;15.73;10.30;;;9.60;99.90;;;;;;5052461;28;20036;-70
2022/06/14 13:26:08;;;;;;;12.30;9.88;;;9.50;99.90;;;;;;5053083;28;20017;-65
2022/06/14 13:28:45;;;;;;;13.77;8.32;;;9.40;99.90;;;;;;5053363;28;20473;-71
2022/06/14 13:31:20;;;;;;;14.75;8.43;;;9.40;99.90;;;;;;5053601;28;20031;-68
2022/06/14 13:33:58;;;;;;;13.55;8.23;;;9.30;99.90;;;;;;5052982;28;20052;-68
2022/06/14 13:36:51;;;;;;;12.27;8.20;;;9.30;99.90;;;;;;5052507;28;20035;-66
2022/06/14 13:39:42;;;;;;;12.18;8.93;;;9.20;99.90;;;;;;5068851;28;20021;-66
2022/06/14 13:42:29;;;;;;;15.75;9.50;;;9.10;99.90;;;;;;5053373;28;20033;-66
2022/06/14 13:45:14;;;;;;;16.80;8.77;;;9.10;99.90;;;;;;5052308;28;20439;-66
2022/06/14 13:47:50;;;;;;;15.98;10.07;;;9.10;99.90;;;;;;5053427;28;20371;-71
2022/06/14 13:50:36;;;;;;;15.98;9.60;;;9.10;99.90;;;;;;5052882;28;20029;-71
2022/06/14 13:53:29;;;;;;;14.13;9.43;;;9.10;99.90;;;;;;5053043;28;20025;-68
2022/06/14 13:56:15;;;;;;;14.02;9.27;;;9.00;99.90;;;;;;5046887;28;20123;-67
2022/06/14 13:59:05;;;;;;;13.80;10.23;;;9.00;99.90;;;;;;5052462;28;20048;-66
2022/06/14 14:01:54;;;;;;;14.50;9.75;;;9.00;99.90;;;;;;5052790;28;20454;-66
2022/06/14 14:04:34;;;;;;;15.48;10.90;;;8.90;99.90;;;;;;5052291;28;20086;-65
2022/06/14 14:07:13;;;;;;;14.30;8.95;;;8.90;99.90;;;;;;5052492;28;20044;-67
2022/06/14 14:10:11;;;;;;;13.82;9.40;;;8.80;99.90;;;;;;5052329;28;20032;-71
2022/06/14 14:13:02;;;;;;;16.42;10.35;;;8.80;99.90;;;;;;5052284;28;20029;-66
2022/06/14 14:15:57;;;;;;;14.32;9.90;;;8.80;99.90;;;;;;5042584;28;20048;-67
2022/06/14 14:18:58;;;;;;;14.40;9.73;;;8.80;99.90;;;;;;5052641;28;20048;-67
2022/06/14 14:21:39;;;;;;;14.77;9.48;;;8.70;99.90;;;;;;5052308;28;20028;-67
2022/06/14 14:24:53;;;;;;;12.90;9.32;;;8.60;99.90;;;;;;5052511;28;20032;-66